createdAt,value
2022-09-16T00:07:25.807Z,650.68976
2022-09-16T00:22:28.004Z,613.9649
2022-09-16T00:37:30.321Z,591.36493
2022-09-16T00:52:32.588Z,808.88928
2022-09-16T01:07:34.839Z,974.62213
2022-09-16T01:22:37.071Z,732.6145
2022-09-16T01:37:39.317Z,373.84058
2022-09-16T01:52:41.730Z,161.9662
2022-09-16T02:07:43.988Z,40.49155
2022-09-16T02:22:46.158Z,3.76666
2022-09-16T02:37:48.419Z,0
2022-09-16T02:52:50.701Z,0
2022-09-16T03:07:53.043Z,0
2022-09-16T03:22:55.318Z,0
2022-09-16T03:37:57.557Z,0
2022-09-16T03:52:59.780Z,0
2022-09-16T04:08:01.982Z,0
2022-09-16T04:23:04.254Z,0
2022-09-16T04:38:06.491Z,0
2022-09-16T04:53:08.686Z,0
2022-09-16T05:08:10.915Z,0
2022-09-16T05:23:13.112Z,0
2022-09-16T05:38:15.442Z,0
2022-09-16T05:53:17.838Z,0
2022-09-16T06:08:20.024Z,0
2022-09-16T06:23:22.327Z,0
2022-09-16T06:38:24.619Z,0
2022-09-16T06:53:26.855Z,0
2022-09-16T07:08:29.140Z,0
2022-09-16T07:23:31.336Z,0
2022-09-16T07:38:33.548Z,0
2022-09-16T07:53:36.021Z,0
2022-09-16T08:08:38.249Z,0
2022-09-16T08:23:40.676Z,0
2022-09-16T08:38:42.883Z,0
2022-09-16T08:53:45.178Z,0
2022-09-16T09:08:47.427Z,0
2022-09-16T09:23:49.623Z,0
2022-09-16T09:38:51.868Z,0
2022-09-16T09:53:54.093Z,0
2022-09-16T10:08:56.297Z,0
2022-09-16T10:23:58.526Z,0
2022-09-16T10:39:04.474Z,0
2022-09-16T10:54:07.432Z,0
2022-09-16T11:09:09.722Z,0
2022-09-16T11:24:11.985Z,0
2022-09-16T11:39:14.205Z,0
2022-09-16T11:54:16.587Z,0
2022-09-16T12:09:18.841Z,0
2022-09-16T12:24:21.159Z,0
2022-09-16T12:39:23.373Z,0
2022-09-16T12:54:25.570Z,0
2022-09-16T13:09:27.964Z,3.76666
2022-09-16T13:24:30.378Z,27.30825
2022-09-16T13:39:32.603Z,78.1581
2022-09-16T13:54:43.191Z,161.9662
2022-09-16T14:09:56.026Z,210.93272
2022-09-16T14:25:06.898Z,401.14883
2022-09-16T14:40:21.539Z,787.23102
2022-09-16T14:55:23.883Z,1345.6377
2022-09-16T15:10:26.103Z,803.23932
2022-09-16T15:25:28.333Z,400.20715
2022-09-16T15:40:30.938Z,172.32449
2022-09-16T15:55:33.233Z,200.57442
2022-09-16T16:10:35.501Z,541.45673
2022-09-16T16:25:37.819Z,746.7395
2022-09-16T16:40:40.157Z,1000.98877
2022-09-16T16:55:42.387Z,931.3056
2022-09-16T17:10:44.576Z,685.53131
2022-09-16T17:25:46.805Z,1802.34473
2022-09-16T17:40:49.040Z,1062.1969
2022-09-16T17:55:51.301Z,1150.71326
2022-09-16T18:10:53.658Z,2071.66064
2022-09-16T18:25:56.111Z,4257.2627
2022-09-16T18:40:58.392Z,5443.75928
2022-09-16T18:56:00.764Z,8573.84961
2022-09-16T19:11:02.946Z,6417.43945
2022-09-16T19:26:05.254Z,2557.55933
2022-09-16T19:41:07.586Z,3881.53857
2022-09-16T19:56:09.859Z,10054.14551
2022-09-16T20:11:12.197Z,3010.49951
2022-09-16T20:26:14.446Z,9486.32227
2022-09-16T20:41:16.642Z,2606.52563
2022-09-16T20:56:18.911Z,2573.56738
2022-09-16T21:11:21.167Z,10239.65332
2022-09-16T21:26:23.805Z,4421.1123
2022-09-16T21:41:26.161Z,2520.83423
2022-09-16T21:56:28.431Z,570.64832
2022-09-16T22:11:30.634Z,1440.74585
2022-09-16T22:26:32.836Z,472.7153
2022-09-16T22:41:35.039Z,1050.89697
2022-09-16T22:56:37.268Z,843.7309
2022-09-16T23:11:39.466Z,232.59099
2022-09-16T23:26:41.689Z,170.44116
2022-09-16T23:41:43.926Z,131.83295
2022-09-16T23:56:46.127Z,197.74942
